PWSweather.com
Personal Weather Stations
Station Observations
GRD01
Warsaw, LesznoPL 05-084

WarsawLesznoPL 05-084

Lat: 52.257404, Lon: 20.564847

Elevation: 298

Station Type: WH3080

http://pogoda.kampinos.waw.pl

High Low Average
Temperature 63.0°F17.2°C 43.7°F6.5°C 51.8°F11.0°C
Dew Point 44.0°F6.7°C 36.6°F2.6°C 40.7°F4.8°C
Winds 13.6 mph 21.9 kmh Calm Calm 5.0 mph WSW8.0 kmh WSW
Wind Gusts 33.6 mph54.1 kmh 2.2 mph3.5 kmh 11.0 mph17.7 kmh
Humidity 90% 38% 68%
Pressure 29.69 in1005.4 mb 29.50 in999.0 mb -
Precipitation 0.07 in1.8 mm - -
Hour Temp Dew Point Humidity Winds Wind Gusts Pressure Precip Precip Rate Daily Precip Total
12:00 AM 52.9°F11.6°C 43.4°F6.3°C 70% 9.2 mph WNW14.8 kmh WNW 16.8 mph27.0 kmh 29.50 in999.0 mb 0.00 in0.0 mm 0.00 in0.0 mm 0.00 in0.0 mm
12:15 AM 52.5°F11.4°C 43.4°F6.3°C 71% 10.7 mph W17.2 kmh W 15.9 mph25.6 kmh 29.51 in999.3 mb 0.00 in0.0 mm 0.00 in0.0 mm 0.00 in0.0 mm
12:30 AM 52.3°F11.3°C 43.2°F6.2°C 71% 6.9 mph WNW11.1 kmh WNW 18.3 mph29.5 kmh 29.52 in999.7 mb 0.00 in0.0 mm 0.00 in0.0 mm 0.00 in0.0 mm
12:45 AM 52.2°F11.2°C 43.4°F6.3°C 72% 6.0 mph WSW9.7 kmh WSW 12.1 mph19.5 kmh 29.50 in999.0 mb 0.00 in0.0 mm 0.00 in0.0 mm 0.00 in0.0 mm
01:00 AM 51.6°F10.9°C 42.9°F6.1°C 72% 5.4 mph WNW8.7 kmh WNW 13.0 mph20.9 kmh 29.52 in999.7 mb 0.00 in0.0 mm 0.00 in0.0 mm 0.00 in0.0 mm
01:15 AM 51.3°F10.7°C 42.9°F6.1°C 73% 8.3 mph W13.4 kmh W 11.4 mph18.3 kmh 29.52 in999.7 mb 0.00 in0.0 mm 0.00 in0.0 mm 0.00 in0.0 mm
01:30 AM 50.5°F10.3°C 41.8°F5.4°C 72% 6.0 mph W9.7 kmh W 14.5 mph23.3 kmh 29.52 in999.7 mb 0.00 in0.0 mm 0.00 in0.0 mm 0.00 in0.0 mm
01:45 AM 50.0°F10.0°C 41.0°F5.0°C 71% 7.6 mph WNW12.2 kmh WNW 11.4 mph18.3 kmh 29.53 in1000.0 mb 0.00 in0.0 mm 0.00 in0.0 mm 0.00 in0.0 mm
02:00 AM 49.5°F9.7°C 40.4°F4.7°C 71% 6.0 mph NW9.7 kmh NW 15.2 mph24.5 kmh 29.55 in1000.7 mb 0.00 in0.0 mm 0.00 in0.0 mm 0.00 in0.0 mm
02:15 AM 49.3°F9.6°C 39.9°F4.4°C 70% 4.5 mph NW7.2 kmh NW 11.4 mph18.3 kmh 29.55 in1000.7 mb 0.00 in0.0 mm 0.00 in0.0 mm 0.00 in0.0 mm
02:30 AM 48.6°F9.2°C 39.2°F4.0°C 70% 6.0 mph NW9.7 kmh NW 9.8 mph15.8 kmh 29.55 in1000.7 mb 0.00 in0.0 mm 0.00 in0.0 mm 0.00 in0.0 mm
02:45 AM 48.2°F9.0°C 38.9°F3.8°C 70% 4.5 mph WNW7.2 kmh WNW 12.1 mph19.5 kmh 29.56 in1001.0 mb 0.00 in0.0 mm 0.00 in0.0 mm 0.00 in0.0 mm
03:00 AM 47.8°F8.8°C 39.2°F4.0°C 72% 6.9 mph W11.1 kmh W 13.0 mph20.9 kmh 29.57 in1001.4 mb 0.00 in0.0 mm 0.00 in0.0 mm 0.00 in0.0 mm
03:15 AM 47.5°F8.6°C 38.9°F3.8°C 72% 8.3 mph NW13.4 kmh NW 12.1 mph19.5 kmh 29.57 in1001.4 mb 0.00 in0.0 mm 0.00 in0.0 mm 0.00 in0.0 mm
03:30 AM 47.1°F8.4°C 38.6°F3.7°C 72% 3.8 mph NW6.1 kmh NW 10.7 mph17.2 kmh 29.57 in1001.4 mb 0.00 in0.0 mm 0.00 in0.0 mm 0.00 in0.0 mm
03:45 AM 46.8°F8.2°C 38.2°F3.4°C 72% 6.9 mph WSW11.1 kmh WSW 10.7 mph17.2 kmh 29.58 in1001.7 mb 0.00 in0.0 mm 0.00 in0.0 mm 0.00 in0.0 mm
04:00 AM 46.0°F7.8°C 37.5°F3.1°C 72% 4.5 mph WSW7.2 kmh WSW 9.8 mph15.8 kmh 29.59 in1002.0 mb 0.00 in0.0 mm 0.00 in0.0 mm 0.00 in0.0 mm
04:15 AM 45.3°F7.4°C 39.5°F4.2°C 80% 4.5 mph NW7.2 kmh NW 7.6 mph12.2 kmh 29.59 in1002.0 mb 0.00 in0.0 mm 0.00 in0.0 mm 0.00 in0.0 mm
04:30 AM 44.8°F7.1°C 39.0°F3.9°C 80% 2.2 mph W3.5 kmh W 7.6 mph12.2 kmh 29.59 in1002.0 mb 0.00 in0.0 mm 0.00 in0.0 mm 0.00 in0.0 mm
04:45 AM 44.4°F6.9°C 39.0°F3.9°C 81% 2.2 mph WNW3.5 kmh WNW 4.5 mph7.2 kmh 29.59 in1002.0 mb 0.00 in0.0 mm 0.00 in0.0 mm 0.00 in0.0 mm
05:00 AM 44.1°F6.7°C 38.6°F3.7°C 81% 2.2 mph NW3.5 kmh NW 5.4 mph8.7 kmh 29.59 in1002.0 mb 0.00 in0.0 mm 0.00 in0.0 mm 0.00 in0.0 mm
05:15 AM 43.9°F6.6°C 38.7°F3.7°C 82% 3.8 mph NW6.1 kmh NW 4.5 mph7.2 kmh 29.59 in1002.0 mb 0.00 in0.0 mm 0.00 in0.0 mm 0.00 in0.0 mm
05:30 AM 44.1°F6.7°C 39.2°F4.0°C 83% Calm Calm 5.4 mph8.7 kmh 29.59 in1002.0 mb 0.00 in0.0 mm 0.00 in0.0 mm 0.00 in0.0 mm
05:45 AM 44.6°F7.0°C 40.1°F4.5°C 84% 2.2 mph W3.5 kmh W 7.6 mph12.2 kmh 29.59 in1002.0 mb 0.00 in0.0 mm 0.00 in0.0 mm 0.00 in0.0 mm
06:00 AM 45.5°F7.5°C 39.7°F4.3°C 80% 2.2 mph WSW3.5 kmh WSW 8.3 mph13.4 kmh 29.60 in1002.4 mb 0.00 in0.0 mm 0.00 in0.0 mm 0.00 in0.0 mm
06:15 AM 46.2°F7.9°C 40.1°F4.5°C 79% 1.6 mph SW2.6 kmh SW 7.6 mph12.2 kmh 29.60 in1002.4 mb 0.00 in0.0 mm 0.00 in0.0 mm 0.00 in0.0 mm
06:30 AM 47.3°F8.5°C 40.8°F4.9°C 78% 0.7 mph SW1.1 kmh SW 8.3 mph13.4 kmh 29.61 in1002.7 mb 0.00 in0.0 mm 0.00 in0.0 mm 0.00 in0.0 mm
06:45 AM 48.2°F9.0°C 41.0°F5.0°C 76% 1.6 mph SW2.6 kmh SW 10.7 mph17.2 kmh 29.61 in1002.7 mb 0.00 in0.0 mm 0.00 in0.0 mm 0.00 in0.0 mm
07:00 AM 49.1°F9.5°C 41.2°F5.1°C 74% 5.4 mph W8.7 kmh W 9.2 mph14.8 kmh 29.61 in1002.7 mb 0.00 in0.0 mm 0.00 in0.0 mm 0.00 in0.0 mm
07:15 AM 50.0°F10.0°C 41.3°F5.2°C 72% 6.0 mph SW9.7 kmh SW 9.2 mph14.8 kmh 29.62 in1003.0 mb 0.00 in0.0 mm 0.00 in0.0 mm 0.00 in0.0 mm
07:30 AM 50.5°F10.3°C 41.5°F5.3°C 71% 9.2 mph W14.8 kmh W 10.7 mph17.2 kmh 29.61 in1002.7 mb 0.00 in0.0 mm 0.00 in0.0 mm 0.00 in0.0 mm
07:45 AM 51.3°F10.7°C 41.8°F5.4°C 70% 7.6 mph SW12.2 kmh SW 9.8 mph15.8 kmh 29.62 in1003.0 mb 0.00 in0.0 mm 0.00 in0.0 mm 0.00 in0.0 mm
08:00 AM 52.0°F11.1°C 42.1°F5.6°C 69% 3.8 mph WSW6.1 kmh WSW 13.6 mph21.9 kmh 29.62 in1003.0 mb 0.00 in0.0 mm 0.00 in0.0 mm 0.00 in0.0 mm
08:15 AM 52.9°F11.6°C 41.4°F5.2°C 65% 7.6 mph SSW12.2 kmh SSW 10.7 mph17.2 kmh 29.62 in1003.0 mb 0.00 in0.0 mm 0.00 in0.0 mm 0.00 in0.0 mm
08:30 AM 54.3°F12.4°C 42.0°F5.6°C 63% 6.9 mph WSW11.1 kmh WSW 14.5 mph23.3 kmh 29.61 in1002.7 mb 0.00 in0.0 mm 0.00 in0.0 mm 0.00 in0.0 mm
08:45 AM 55.6°F13.1°C 41.9°F5.5°C 60% 3.8 mph SSE6.1 kmh SSE 12.1 mph19.5 kmh 29.61 in1002.7 mb 0.00 in0.0 mm 0.00 in0.0 mm 0.00 in0.0 mm
09:00 AM 56.8°F13.8°C 42.2°F5.7°C 58% 2.2 mph SW3.5 kmh SW 10.7 mph17.2 kmh 29.60 in1002.4 mb 0.00 in0.0 mm 0.00 in0.0 mm 0.00 in0.0 mm
09:15 AM 58.5°F14.7°C 42.8°F6.0°C 56% 6.9 mph W11.1 kmh W 12.1 mph19.5 kmh 29.61 in1002.7 mb 0.00 in0.0 mm 0.00 in0.0 mm 0.00 in0.0 mm
09:30 AM 58.5°F14.7°C 41.4°F5.2°C 53% 5.4 mph W8.7 kmh W 11.4 mph18.3 kmh 29.61 in1002.7 mb 0.00 in0.0 mm 0.00 in0.0 mm 0.00 in0.0 mm
09:45 AM 57.6°F14.2°C 42.0°F5.6°C 56% 6.9 mph WSW11.1 kmh WSW 14.5 mph23.3 kmh 29.61 in1002.7 mb 0.00 in0.0 mm 0.00 in0.0 mm 0.00 in0.0 mm
10:00 AM 58.1°F14.5°C 41.5°F5.3°C 54% 8.3 mph SW13.4 kmh SW 19.0 mph30.6 kmh 29.60 in1002.4 mb 0.00 in0.0 mm 0.00 in0.0 mm 0.00 in0.0 mm
10:15 AM 58.5°F14.7°C 42.3°F5.7°C 55% 8.3 mph W13.4 kmh W 16.8 mph27.0 kmh 29.61 in1002.7 mb 0.00 in0.0 mm 0.00 in0.0 mm 0.00 in0.0 mm
10:30 AM 59.0°F15.0°C 40.9°F4.9°C 51% 7.6 mph SW12.2 kmh SW 14.5 mph23.3 kmh 29.61 in1002.7 mb 0.00 in0.0 mm 0.00 in0.0 mm 0.00 in0.0 mm
10:45 AM 58.5°F14.7°C 41.4°F5.2°C 53% 7.6 mph WSW12.2 kmh WSW 11.4 mph18.3 kmh 29.61 in1002.7 mb 0.00 in0.0 mm 0.00 in0.0 mm 0.00 in0.0 mm
11:00 AM 58.3°F14.6°C 40.7°F4.8°C 52% 7.6 mph W12.2 kmh W 14.5 mph23.3 kmh 29.60 in1002.4 mb 0.00 in0.0 mm 0.00 in0.0 mm 0.00 in0.0 mm
11:15 AM 60.4°F15.8°C 41.7°F5.4°C 50% 9.2 mph SW14.8 kmh SW 13.6 mph21.9 kmh 29.60 in1002.4 mb 0.00 in0.0 mm 0.00 in0.0 mm 0.00 in0.0 mm
11:30 AM 59.7°F15.4°C 38.9°F3.8°C 46% 6.9 mph SW11.1 kmh SW 18.3 mph29.5 kmh 29.59 in1002.0 mb 0.00 in0.0 mm 0.00 in0.0 mm 0.00 in0.0 mm
11:45 AM 60.1°F15.6°C 39.2°F4.0°C 46% 12.1 mph W19.5 kmh W 15.9 mph25.6 kmh 29.59 in1002.0 mb 0.00 in0.0 mm 0.00 in0.0 mm 0.00 in0.0 mm
12:00 PM 60.1°F15.6°C 37.5°F3.1°C 43% 11.4 mph SW18.3 kmh SW 20.6 mph33.2 kmh 29.58 in1001.7 mb 0.00 in0.0 mm 0.00 in0.0 mm 0.00 in0.0 mm
12:15 PM 60.8°F16.0°C 38.7°F3.7°C 44% 9.8 mph SW15.8 kmh SW 15.9 mph25.6 kmh 29.59 in1002.0 mb 0.00 in0.0 mm 0.00 in0.0 mm 0.00 in0.0 mm
12:30 PM 62.2°F16.8°C 38.2°F3.4°C 41% 8.3 mph WSW13.4 kmh WSW 19.0 mph30.6 kmh 29.59 in1002.0 mb 0.00 in0.0 mm 0.00 in0.0 mm 0.00 in0.0 mm
12:45 PM 63.0°F17.2°C 36.9°F2.7°C 38% 10.7 mph WSW17.2 kmh WSW 19.7 mph31.7 kmh 29.58 in1001.7 mb 0.00 in0.0 mm 0.00 in0.0 mm 0.00 in0.0 mm
01:00 PM 62.6°F17.0°C 37.9°F3.3°C 40% 13.6 mph WSW21.9 kmh WSW 20.6 mph33.2 kmh 29.57 in1001.4 mb 0.00 in0.0 mm 0.00 in0.0 mm 0.00 in0.0 mm
01:15 PM 61.2°F16.2°C 36.6°F2.6°C 40% 8.3 mph NW13.4 kmh NW 20.6 mph33.2 kmh 29.57 in1001.4 mb 0.00 in0.0 mm 0.00 in0.0 mm 0.00 in0.0 mm
01:30 PM 61.7°F16.5°C 37.1°F2.8°C 40% 12.1 mph W19.5 kmh W 16.8 mph27.0 kmh 29.57 in1001.4 mb 0.00 in0.0 mm 0.00 in0.0 mm 0.00 in0.0 mm
01:45 PM 62.2°F16.8°C 37.0°F2.8°C 39% 9.2 mph W14.8 kmh W 15.2 mph24.5 kmh 29.57 in1001.4 mb 0.00 in0.0 mm 0.00 in0.0 mm 0.00 in0.0 mm
02:00 PM 61.9°F16.6°C 37.3°F2.9°C 40% 5.4 mph WSW8.7 kmh WSW 15.9 mph25.6 kmh 29.57 in1001.4 mb 0.00 in0.0 mm 0.00 in0.0 mm 0.00 in0.0 mm
02:15 PM 61.9°F16.6°C 37.3°F2.9°C 40% 11.4 mph W18.3 kmh W 15.2 mph24.5 kmh 29.57 in1001.4 mb 0.00 in0.0 mm 0.00 in0.0 mm 0.00 in0.0 mm
02:30 PM 61.3°F16.3°C 36.8°F2.7°C 40% 6.0 mph SW9.7 kmh SW 13.6 mph21.9 kmh 29.57 in1001.4 mb 0.00 in0.0 mm 0.00 in0.0 mm 0.00 in0.0 mm
02:45 PM 61.2°F16.2°C 37.3°F2.9°C 41% 6.0 mph W9.7 kmh W 15.9 mph25.6 kmh 29.57 in1001.4 mb 0.00 in0.0 mm 0.00 in0.0 mm 0.00 in0.0 mm
03:00 PM 61.0°F16.1°C 37.7°F3.2°C 42% 8.3 mph WSW13.4 kmh WSW 13.0 mph20.9 kmh 29.57 in1001.4 mb 0.00 in0.0 mm 0.00 in0.0 mm 0.00 in0.0 mm
03:15 PM 60.1°F15.6°C 36.9°F2.7°C 42% 6.9 mph WNW11.1 kmh WNW 12.1 mph19.5 kmh 29.57 in1001.4 mb 0.00 in0.0 mm 0.00 in0.0 mm 0.00 in0.0 mm
03:30 PM 59.4°F15.2°C 39.1°F3.9°C 47% 12.1 mph SSE19.5 kmh SSE 17.4 mph28.0 kmh 29.57 in1001.4 mb 0.00 in0.0 mm 0.00 in0.0 mm 0.00 in0.0 mm
03:45 PM 58.1°F14.5°C 39.5°F4.2°C 50% 8.3 mph E13.4 kmh E 11.4 mph18.3 kmh 29.57 in1001.4 mb 0.00 in0.0 mm 0.00 in0.0 mm 0.00 in0.0 mm
04:00 PM 57.6°F14.2°C 39.0°F3.9°C 50% 8.3 mph S13.4 kmh S 18.3 mph29.5 kmh 29.58 in1001.7 mb 0.00 in0.0 mm 0.00 in0.0 mm 0.00 in0.0 mm
04:15 PM 54.9°F12.7°C 41.2°F5.1°C 60% 6.0 mph WNW9.7 kmh WNW 33.6 mph54.1 kmh 29.62 in1003.0 mb 0.02 in0.5 mm 0.08 in2.0 mm 0.02 in0.5 mm
04:30 PM 51.6°F10.9°C 42.5°F5.8°C 71% 7.6 mph NW12.2 kmh NW 13.6 mph21.9 kmh 29.61 in1002.7 mb 0.04 in1.0 mm 0.08 in2.0 mm 0.04 in1.0 mm
04:45 PM 49.5°F9.7°C 41.9°F5.5°C 75% 6.9 mph NW11.1 kmh NW 13.6 mph21.9 kmh 29.62 in1003.0 mb 0.06 in1.5 mm 0.08 in2.0 mm 0.06 in1.5 mm
05:00 PM 48.6°F9.2°C 42.3°F5.7°C 79% 4.5 mph NNW7.2 kmh NNW 11.4 mph18.3 kmh 29.61 in1002.7 mb 0.07 in1.8 mm 0.01 in0.3 mm 0.07 in1.8 mm
05:15 PM 48.6°F9.2°C 42.7°F5.9°C 80% 0.7 mph WSW1.1 kmh WSW 3.8 mph6.1 kmh 29.61 in1002.7 mb 0.05 in1.3 mm 0.00 in0.0 mm 0.07 in1.8 mm
05:30 PM 48.7°F9.3°C 43.2°F6.2°C 81% 1.6 mph SW2.6 kmh SW 4.5 mph7.2 kmh 29.62 in1003.0 mb 0.04 in1.0 mm 0.00 in0.0 mm 0.07 in1.8 mm
05:45 PM 48.9°F9.4°C 43.3°F6.3°C 81% 3.1 mph SSW5.0 kmh SSW 6.9 mph11.1 kmh 29.62 in1003.0 mb 0.01 in0.3 mm 0.00 in0.0 mm 0.07 in1.8 mm
06:00 PM 49.1°F9.5°C 43.5°F6.4°C 81% 5.4 mph SW8.7 kmh SW 6.9 mph11.1 kmh 29.61 in1002.7 mb 0.00 in0.0 mm 0.00 in0.0 mm 0.07 in1.8 mm
06:15 PM 49.3°F9.6°C 44.0°F6.7°C 82% 2.2 mph SW3.5 kmh SW 5.4 mph8.7 kmh 29.61 in1002.7 mb 0.00 in0.0 mm 0.00 in0.0 mm 0.07 in1.8 mm
06:30 PM 49.3°F9.6°C 43.7°F6.5°C 81% 4.5 mph SW7.2 kmh SW 5.4 mph8.7 kmh 29.62 in1003.0 mb 0.00 in0.0 mm 0.00 in0.0 mm 0.07 in1.8 mm
06:45 PM 49.1°F9.5°C 43.5°F6.4°C 81% 2.2 mph SW3.5 kmh SW 4.5 mph7.2 kmh 29.62 in1003.0 mb 0.00 in0.0 mm 0.00 in0.0 mm 0.07 in1.8 mm
07:00 PM 48.9°F9.4°C 43.3°F6.3°C 81% 3.1 mph SW5.0 kmh SW 6.9 mph11.1 kmh 29.63 in1003.4 mb 0.00 in0.0 mm 0.00 in0.0 mm 0.07 in1.8 mm
07:15 PM 48.7°F9.3°C 43.2°F6.2°C 81% Calm Calm 4.5 mph7.2 kmh 29.63 in1003.4 mb 0.00 in0.0 mm 0.00 in0.0 mm 0.07 in1.8 mm
07:30 PM 48.4°F9.1°C 43.1°F6.2°C 82% 1.6 mph SSW2.6 kmh SSW 3.1 mph5.0 kmh 29.64 in1003.7 mb 0.00 in0.0 mm 0.00 in0.0 mm 0.07 in1.8 mm
07:45 PM 48.0°F8.9°C 42.8°F6.0°C 82% 1.6 mph SSW2.6 kmh SSW 4.5 mph7.2 kmh 29.65 in1004.1 mb 0.00 in0.0 mm 0.00 in0.0 mm 0.07 in1.8 mm
08:00 PM 47.8°F8.8°C 42.9°F6.1°C 83% 3.8 mph SW6.1 kmh SW 7.6 mph12.2 kmh 29.65 in1004.1 mb 0.00 in0.0 mm 0.00 in0.0 mm 0.07 in1.8 mm
08:15 PM 47.8°F8.8°C 43.2°F6.2°C 84% 6.0 mph SSE9.7 kmh SSE 8.3 mph13.4 kmh 29.65 in1004.1 mb 0.00 in0.0 mm 0.00 in0.0 mm 0.07 in1.8 mm
08:30 PM 47.7°F8.7°C 43.1°F6.2°C 84% 3.1 mph WSW5.0 kmh WSW 9.8 mph15.8 kmh 29.66 in1004.4 mb 0.00 in0.0 mm 0.00 in0.0 mm 0.07 in1.8 mm
08:45 PM 47.3°F8.5°C 42.1°F5.6°C 82% 3.8 mph W6.1 kmh W 8.3 mph13.4 kmh 29.66 in1004.4 mb 0.00 in0.0 mm 0.00 in0.0 mm 0.07 in1.8 mm
09:00 PM 46.9°F8.3°C 41.4°F5.2°C 81% 2.2 mph WNW3.5 kmh WNW 4.5 mph7.2 kmh 29.67 in1004.7 mb 0.00 in0.0 mm 0.00 in0.0 mm 0.07 in1.8 mm
09:15 PM 46.2°F7.9°C 40.4°F4.7°C 80% Calm Calm 2.2 mph3.5 kmh 29.67 in1004.7 mb 0.00 in0.0 mm 0.00 in0.0 mm 0.07 in1.8 mm
09:30 PM 45.7°F7.6°C 39.9°F4.4°C 80% 0.7 mph S1.1 kmh S 2.2 mph3.5 kmh 29.66 in1004.4 mb 0.00 in0.0 mm 0.00 in0.0 mm 0.07 in1.8 mm
09:45 PM 45.3°F7.4°C 41.1°F5.1°C 85% 3.8 mph S6.1 kmh S 5.4 mph8.7 kmh 29.66 in1004.4 mb 0.00 in0.0 mm 0.00 in0.0 mm 0.07 in1.8 mm
10:00 PM 45.0°F7.2°C 41.0°F5.0°C 86% 3.8 mph WNW6.1 kmh WNW 5.4 mph8.7 kmh 29.66 in1004.4 mb 0.00 in0.0 mm 0.00 in0.0 mm 0.07 in1.8 mm
10:15 PM 44.8°F7.1°C 41.1°F5.1°C 87% 2.2 mph W3.5 kmh W 5.4 mph8.7 kmh 29.67 in1004.7 mb 0.00 in0.0 mm 0.00 in0.0 mm 0.07 in1.8 mm
10:30 PM 44.6°F7.0°C 41.0°F5.0°C 87% 0.7 mph W1.1 kmh W 5.4 mph8.7 kmh 29.67 in1004.7 mb 0.00 in0.0 mm 0.00 in0.0 mm 0.07 in1.8 mm
10:45 PM 44.4°F6.9°C 41.1°F5.1°C 88% 1.6 mph W2.6 kmh W 3.1 mph5.0 kmh 29.68 in1005.1 mb 0.00 in0.0 mm 0.00 in0.0 mm 0.07 in1.8 mm
11:00 PM 44.1°F6.7°C 40.7°F4.8°C 88% Calm Calm 3.1 mph5.0 kmh 29.68 in1005.1 mb 0.00 in0.0 mm 0.00 in0.0 mm 0.07 in1.8 mm
11:15 PM 43.7°F6.5°C 40.4°F4.7°C 88% 0.7 mph S1.1 kmh S 2.2 mph3.5 kmh 29.68 in1005.1 mb 0.00 in0.0 mm 0.00 in0.0 mm 0.07 in1.8 mm
11:30 PM 44.1°F6.7°C 41.0°F5.0°C 89% 0.7 mph S1.1 kmh S 3.8 mph6.1 kmh 29.69 in1005.4 mb 0.00 in0.0 mm 0.00 in0.0 mm 0.07 in1.8 mm
11:45 PM 44.2°F6.8°C 41.5°F5.3°C 90% Calm Calm 4.5 mph7.2 kmh 29.68 in1005.1 mb 0.00 in0.0 mm 0.00 in0.0 mm 0.07 in1.8 mm